sensor_id;sensor_type;location;lat;lon;timestamp;pressure;altitude;pressure_sealevel;temperature;humidity
79142;BME280;68550;-26.480;29.234;2023-06-10T00:00:12;84476.37;;;22.30;21.96
79142;BME280;68550;-26.480;29.234;2023-06-10T00:02:37;84474.38;;;22.31;22.03
79142;BME280;68550;-26.480;29.234;2023-06-10T00:05:03;84476.16;;;22.19;21.98
79142;BME280;68550;-26.480;29.234;2023-06-10T00:07:28;84475.46;;;22.13;22.06
79142;BME280;68550;-26.480;29.234;2023-06-10T00:09:56;84476.40;;;22.23;21.90
79142;BME280;68550;-26.480;29.234;2023-06-10T00:12:19;84475.23;;;22.31;21.78
79142;BME280;68550;-26.480;29.234;2023-06-10T00:14:45;84475.63;;;22.15;21.84
79142;BME280;68550;-26.480;29.234;2023-06-10T00:17:10;84474.54;;;22.09;21.93
79142;BME280;68550;-26.480;29.234;2023-06-10T00:19:36;84475.44;;;21.94;21.88
79142;BME280;68550;-26.480;29.234;2023-06-10T00:22:02;84478.99;;;21.81;22.00
79142;BME280;68550;-26.480;29.234;2023-06-10T00:24:27;84477.97;;;21.76;22.15
79142;BME280;68550;-26.480;29.234;2023-06-10T00:26:52;84477.87;;;21.92;22.11
79142;BME280;68550;-26.480;29.234;2023-06-10T00:29:18;84481.69;;;21.61;22.21
79142;BME280;68550;-26.480;29.234;2023-06-10T00:31:45;84482.27;;;21.50;22.23
79142;BME280;68550;-26.480;29.234;2023-06-10T00:34:09;84482.38;;;21.93;22.39
79142;BME280;68550;-26.480;29.234;2023-06-10T00:36:34;84481.74;;;21.83;22.31
79142;BME280;68550;-26.480;29.234;2023-06-10T00:39:03;84481.47;;;22.06;22.64
79142;BME280;68550;-26.480;29.234;2023-06-10T00:41:25;84478.67;;;21.73;22.43
79142;BME280;68550;-26.480;29.234;2023-06-10T00:43:51;84478.21;;;22.28;22.71
79142;BME280;68550;-26.480;29.234;2023-06-10T00:46:16;84479.57;;;21.86;22.62
79142;BME280;68550;-26.480;29.234;2023-06-10T00:48:43;84481.82;;;21.84;22.55
79142;BME280;68550;-26.480;29.234;2023-06-10T00:51:08;84483.00;;;21.75;22.70
79142;BME280;68550;-26.480;29.234;2023-06-10T00:53:35;84484.79;;;21.86;23.03
79142;BME280;68550;-26.480;29.234;2023-06-10T00:55:59;84488.64;;;22.17;22.73
79142;BME280;68550;-26.480;29.234;2023-06-10T00:58:25;84488.16;;;22.36;22.73
79142;BME280;68550;-26.480;29.234;2023-06-10T01:00:50;84489.41;;;22.04;22.75
79142;BME280;68550;-26.480;29.234;2023-06-10T01:03:15;84493.41;;;22.05;22.77
79142;BME280;68550;-26.480;29.234;2023-06-10T01:05:41;84498.97;;;22.26;22.69
79142;BME280;68550;-26.480;29.234;2023-06-10T01:08:12;84500.91;;;21.62;22.61
79142;BME280;68550;-26.480;29.234;2023-06-10T01:10:36;84497.92;;;21.65;22.62
79142;BME280;68550;-26.480;29.234;2023-06-10T01:12:59;84496.99;;;21.71;22.56
79142;BME280;68550;-26.480;29.234;2023-06-10T01:15:23;84494.95;;;21.46;22.55
79142;BME280;68550;-26.480;29.234;2023-06-10T01:17:59;84495.85;;;21.68;22.54
79142;BME280;68550;-26.480;29.234;2023-06-10T01:20:18;84499.56;;;21.44;22.47
79142;BME280;68550;-26.480;29.234;2023-06-10T01:22:39;84499.97;;;21.70;22.47
79142;BME280;68550;-26.480;29.234;2023-06-10T01:25:07;84497.21;;;21.73;22.30
79142;BME280;68550;-26.480;29.234;2023-06-10T01:27:34;84494.60;;;21.45;22.46
79142;BME280;68550;-26.480;29.234;2023-06-10T01:29:59;84489.00;;;21.34;22.50
79142;BME280;68550;-26.480;29.234;2023-06-10T01:32:28;84488.68;;;21.50;22.56
79142;BME280;68550;-26.480;29.234;2023-06-10T01:34:48;84489.36;;;21.46;22.38
79142;BME280;68550;-26.480;29.234;2023-06-10T01:37:13;84491.32;;;21.55;22.29
79142;BME280;68550;-26.480;29.234;2023-06-10T01:39:38;84489.07;;;21.57;22.27
79142;BME280;68550;-26.480;29.234;2023-06-10T01:42:03;84487.60;;;21.71;22.38
79142;BME280;68550;-26.480;29.234;2023-06-10T01:44:28;84489.80;;;21.50;22.27
79142;BME280;68550;-26.480;29.234;2023-06-10T01:46:53;84490.03;;;21.73;22.25
79142;BME280;68550;-26.480;29.234;2023-06-10T01:49:21;84493.64;;;21.79;22.30
79142;BME280;68550;-26.480;29.234;2023-06-10T01:51:45;84495.01;;;21.66;22.28
79142;BME280;68550;-26.480;29.234;2023-06-10T01:54:10;84494.99;;;21.94;22.35
79142;BME280;68550;-26.480;29.234;2023-06-10T01:56:36;84494.68;;;21.56;22.38
79142;BME280;68550;-26.480;29.234;2023-06-10T01:59:01;84495.01;;;21.89;22.43
79142;BME280;68550;-26.480;29.234;2023-06-10T02:01:27;84496.87;;;21.75;22.30
79142;BME280;68550;-26.480;29.234;2023-06-10T02:03:52;84493.10;;;21.84;22.36
79142;BME280;68550;-26.480;29.234;2023-06-10T02:06:17;84493.98;;;21.67;22.42
79142;BME280;68550;-26.480;29.234;2023-06-10T02:08:43;84493.51;;;21.73;22.43
79142;BME280;68550;-26.480;29.234;2023-06-10T02:11:08;84495.53;;;21.64;22.24
79142;BME280;68550;-26.480;29.234;2023-06-10T02:13:37;84495.31;;;21.69;22.34
79142;BME280;68550;-26.480;29.234;2023-06-10T02:16:00;84496.27;;;21.49;22.42
79142;BME280;68550;-26.480;29.234;2023-06-10T02:18:25;84497.39;;;21.10;22.35
79142;BME280;68550;-26.480;29.234;2023-06-10T02:20:51;84500.12;;;21.49;22.58
79142;BME280;68550;-26.480;29.234;2023-06-10T02:23:16;84501.09;;;21.44;22.71
79142;BME280;68550;-26.480;29.234;2023-06-10T02:25:47;84499.67;;;21.30;22.49
79142;BME280;68550;-26.480;29.234;2023-06-10T02:28:07;84503.68;;;21.40;22.36
79142;BME280;68550;-26.480;29.234;2023-06-10T02:30:32;84506.64;;;21.51;22.30
79142;BME280;68550;-26.480;29.234;2023-06-10T02:32:58;84506.87;;;21.37;22.29
79142;BME280;68550;-26.480;29.234;2023-06-10T02:35:23;84507.32;;;21.43;22.16
79142;BME280;68550;-26.480;29.234;2023-06-10T02:37:49;84506.71;;;21.35;22.25
79142;BME280;68550;-26.480;29.234;2023-06-10T02:40:14;84510.19;;;21.39;22.40
79142;BME280;68550;-26.480;29.234;2023-06-10T02:42:39;84510.99;;;21.34;22.45
79142;BME280;68550;-26.480;29.234;2023-06-10T02:45:06;84511.16;;;21.29;22.57
79142;BME280;68550;-26.480;29.234;2023-06-10T02:47:31;84514.55;;;21.41;22.67
79142;BME280;68550;-26.480;29.234;2023-06-10T02:49:59;84518.36;;;21.54;22.86
79142;BME280;68550;-26.480;29.234;2023-06-10T02:52:21;84520.47;;;21.39;23.38
79142;BME280;68550;-26.480;29.234;2023-06-10T02:54:47;84524.46;;;21.49;23.51
79142;BME280;68550;-26.480;29.234;2023-06-10T02:57:12;84525.49;;;21.24;23.13
79142;BME280;68550;-26.480;29.234;2023-06-10T02:59:37;84529.37;;;21.51;23.21
79142;BME280;68550;-26.480;29.234;2023-06-10T03:02:03;84533.11;;;21.62;23.13
79142;BME280;68550;-26.480;29.234;2023-06-10T03:04:29;84534.59;;;21.59;23.12
79142;BME280;68550;-26.480;29.234;2023-06-10T03:06:54;84539.03;;;21.51;23.07
79142;BME280;68550;-26.480;29.234;2023-06-10T03:09:19;84543.39;;;21.56;22.98
79142;BME280;68550;-26.480;29.234;2023-06-10T03:11:45;84546.39;;;21.41;22.85
79142;BME280;68550;-26.480;29.234;2023-06-10T03:14:11;84548.12;;;21.64;22.60
79142;BME280;68550;-26.480;29.234;2023-06-10T03:16:36;84548.19;;;21.66;22.53
79142;BME280;68550;-26.480;29.234;2023-06-10T03:19:02;84548.56;;;21.60;22.67
79142;BME280;68550;-26.480;29.234;2023-06-10T03:21:27;84550.25;;;21.45;22.59
79142;BME280;68550;-26.480;29.234;2023-06-10T03:23:53;84551.97;;;21.25;22.84
79142;BME280;68550;-26.480;29.234;2023-06-10T03:26:18;84551.64;;;21.34;22.80
79142;BME280;68550;-26.480;29.234;2023-06-10T03:28:43;84553.71;;;21.46;22.60
79142;BME280;68550;-26.480;29.234;2023-06-10T03:31:11;84550.91;;;21.48;22.60
79142;BME280;68550;-26.480;29.234;2023-06-10T03:33:34;84552.88;;;21.34;22.67
79142;BME280;68550;-26.480;29.234;2023-06-10T03:36:00;84550.62;;;21.20;22.84
79142;BME280;68550;-26.480;29.234;2023-06-10T03:38:25;84547.81;;;21.14;22.87
79142;BME280;68550;-26.480;29.234;2023-06-10T03:40:51;84546.20;;;21.32;22.86
79142;BME280;68550;-26.480;29.234;2023-06-10T03:43:17;84546.61;;;21.23;23.06
79142;BME280;68550;-26.480;29.234;2023-06-10T03:45:42;84550.00;;;21.21;22.93
79142;BME280;68550;-26.480;29.234;2023-06-10T03:48:08;84553.49;;;21.47;23.00
79142;BME280;68550;-26.480;29.234;2023-06-10T03:50:33;84551.84;;;21.31;22.67
79142;BME280;68550;-26.480;29.234;2023-06-10T03:52:59;84548.45;;;21.22;22.62
79142;BME280;68550;-26.480;29.234;2023-06-10T03:55:24;84549.98;;;21.24;22.60
79142;BME280;68550;-26.480;29.234;2023-06-10T03:57:49;84555.17;;;21.30;22.63
79142;BME280;68550;-26.480;29.234;2023-06-10T04:00:17;84555.82;;;21.62;22.58
79142;BME280;68550;-26.480;29.234;2023-06-10T04:02:40;84557.02;;;21.26;22.59
79142;BME280;68550;-26.480;29.234;2023-06-10T04:05:07;84561.23;;;21.26;22.50
79142;BME280;68550;-26.480;29.234;2023-06-10T04:07:34;84562.80;;;21.30;22.55
79142;BME280;68550;-26.480;29.234;2023-06-10T04:09:57;84560.72;;;21.48;22.53
79142;BME280;68550;-26.480;29.234;2023-06-10T04:12:23;84560.76;;;21.77;22.41
79142;BME280;68550;-26.480;29.234;2023-06-10T04:14:48;84563.31;;;21.24;22.30
79142;BME280;68550;-26.480;29.234;2023-06-10T04:17:14;84567.95;;;21.25;22.25
79142;BME280;68550;-26.480;29.234;2023-06-10T04:19:41;84572.93;;;21.20;22.39
79142;BME280;68550;-26.480;29.234;2023-06-10T04:22:05;84579.54;;;21.22;22.30
79142;BME280;68550;-26.480;29.234;2023-06-10T04:24:30;84584.38;;;21.75;22.25
79142;BME280;68550;-26.480;29.234;2023-06-10T04:26:56;84587.81;;;21.46;22.31
79142;BME280;68550;-26.480;29.234;2023-06-10T04:29:21;84589.76;;;21.19;22.28
79142;BME280;68550;-26.480;29.234;2023-06-10T04:31:49;84591.71;;;21.03;22.24
79142;BME280;68550;-26.480;29.234;2023-06-10T04:34:14;84596.36;;;21.22;22.39
79142;BME280;68550;-26.480;29.234;2023-06-10T04:36:38;84599.06;;;20.97;22.30
79142;BME280;68550;-26.480;29.234;2023-06-10T04:39:03;84599.28;;;21.22;22.26
79142;BME280;68550;-26.480;29.234;2023-06-10T04:41:29;84599.97;;;21.23;22.22
79142;BME280;68550;-26.480;29.234;2023-06-10T04:43:54;84606.90;;;20.97;22.13
79142;BME280;68550;-26.480;29.234;2023-06-10T04:46:20;84611.92;;;21.21;22.27
79142;BME280;68550;-26.480;29.234;2023-06-10T04:48:45;84613.44;;;21.02;22.03
79142;BME280;68550;-26.480;29.234;2023-06-10T04:51:13;84614.84;;;20.80;22.34
79142;BME280;68550;-26.480;29.234;2023-06-10T04:53:43;84617.46;;;20.54;22.25
79142;BME280;68550;-26.480;29.234;2023-06-10T04:56:02;84618.52;;;20.95;22.24
79142;BME280;68550;-26.480;29.234;2023-06-10T04:58:28;84618.00;;;20.49;22.27
79142;BME280;68550;-26.480;29.234;2023-06-10T05:04:13;84627.73;;;19.12;23.97
79142;BME280;68550;-26.480;29.234;2023-06-10T05:06:33;84627.42;;;19.76;23.42
79142;BME280;68550;-26.480;29.234;2023-06-10T05:09:03;84628.78;;;20.33;22.90
79142;BME280;68550;-26.480;29.234;2023-06-10T05:11:28;84631.31;;;20.36;22.62
79142;BME280;68550;-26.480;29.234;2023-06-10T05:13:53;84635.68;;;20.65;22.37
79142;BME280;68550;-26.480;29.234;2023-06-10T05:16:19;84634.80;;;20.78;22.24
79142;BME280;68550;-26.480;29.234;2023-06-10T05:18:45;84635.68;;;20.81;22.18
79142;BME280;68550;-26.480;29.234;2023-06-10T05:21:10;84634.98;;;20.53;22.14
79142;BME280;68550;-26.480;29.234;2023-06-10T05:50:26;84653.32;;;20.93;21.81
79142;BME280;68550;-26.480;29.234;2023-06-10T05:52:42;84656.38;;;21.11;21.86
79142;BME280;68550;-26.480;29.234;2023-06-10T05:59:58;84664.55;;;20.73;22.22
79142;BME280;68550;-26.480;29.234;2023-06-10T06:02:23;84664.52;;;21.03;22.28
79142;BME280;68550;-26.480;29.234;2023-06-10T06:04:49;84668.16;;;21.15;22.33
79142;BME280;68550;-26.480;29.234;2023-06-10T06:07:18;84666.85;;;20.87;22.36
79142;BME280;68550;-26.480;29.234;2023-06-10T06:14:32;84675.95;;;21.20;22.52
79142;BME280;68550;-26.480;29.234;2023-06-10T06:24:13;84680.84;;;21.53;22.53
79142;BME280;68550;-26.480;29.234;2023-06-10T06:41:27;84691.97;;;21.32;23.08
79142;BME280;68550;-26.480;29.234;2023-06-10T06:43:37;84693.80;;;21.39;23.26
79142;BME280;68550;-26.480;29.234;2023-06-10T06:46:04;84697.91;;;21.42;23.19
79142;BME280;68550;-26.480;29.234;2023-06-10T06:48:28;84699.68;;;21.38;23.17
79142;BME280;68550;-26.480;29.234;2023-06-10T06:50:53;84705.72;;;21.45;23.54
79142;BME280;68550;-26.480;29.234;2023-06-10T06:53:19;84709.08;;;21.45;23.49
79142;BME280;68550;-26.480;29.234;2023-06-10T06:55:44;84712.44;;;21.36;23.44
79142;BME280;68550;-26.480;29.234;2023-06-10T06:58:10;84720.79;;;21.44;23.34
79142;BME280;68550;-26.480;29.234;2023-06-10T07:02:31;84723.34;;;20.75;23.73
79142;BME280;68550;-26.480;29.234;2023-06-10T07:04:56;84723.94;;;21.37;23.46
79142;BME280;68550;-26.480;29.234;2023-06-10T07:07:21;84723.18;;;21.35;23.22
79142;BME280;68550;-26.480;29.234;2023-06-10T07:09:46;84723.94;;;21.35;23.22
79142;BME280;68550;-26.480;29.234;2023-06-10T07:12:12;84728.36;;;21.49;23.27
79142;BME280;68550;-26.480;29.234;2023-06-10T07:14:37;84733.83;;;21.57;23.33
79142;BME280;68550;-26.480;29.234;2023-06-10T07:17:07;84732.35;;;21.55;23.42
79142;BME280;68550;-26.480;29.234;2023-06-10T07:19:28;84735.88;;;21.32;23.32
79142;BME280;68550;-26.480;29.234;2023-06-10T07:21:54;84739.01;;;21.45;23.44
79142;BME280;68550;-26.480;29.234;2023-06-10T07:24:19;84743.60;;;21.59;23.49
79142;BME280;68550;-26.480;29.234;2023-06-10T07:26:45;84745.60;;;21.50;23.57
79142;BME280;68550;-26.480;29.234;2023-06-10T07:29:10;84752.15;;;21.63;23.60
79142;BME280;68550;-26.480;29.234;2023-06-10T07:31:36;84745.11;;;21.35;23.51
79142;BME280;68550;-26.480;29.234;2023-06-10T07:34:01;84745.87;;;21.50;23.52
79142;BME280;68550;-26.480;29.234;2023-06-10T07:36:27;84744.45;;;21.73;23.34
79142;BME280;68550;-26.480;29.234;2023-06-10T07:38:52;84750.75;;;21.90;23.49
79142;BME280;68550;-26.480;29.234;2023-06-10T07:41:18;84751.67;;;21.80;23.49
79142;BME280;68550;-26.480;29.234;2023-06-10T07:43:43;84752.84;;;21.76;23.53
79142;BME280;68550;-26.480;29.234;2023-06-10T07:46:09;84753.03;;;21.40;23.58
79142;BME280;68550;-26.480;29.234;2023-06-10T07:48:34;84752.05;;;21.76;23.39
79142;BME280;68550;-26.480;29.234;2023-06-10T07:51:00;84751.88;;;21.70;23.35
79142;BME280;68550;-26.480;29.234;2023-06-10T07:53:27;84749.00;;;21.89;23.51
79142;BME280;68550;-26.480;29.234;2023-06-10T07:55:50;84748.55;;;21.67;23.64
79142;BME280;68550;-26.480;29.234;2023-06-10T07:58:16;84749.23;;;21.93;23.61
79142;BME280;68550;-26.480;29.234;2023-06-10T08:00:42;84743.89;;;21.88;23.46
79142;BME280;68550;-26.480;29.234;2023-06-10T08:03:08;84743.22;;;21.58;23.50
79142;BME280;68550;-26.480;29.234;2023-06-10T08:05:32;84740.91;;;22.09;23.31
79142;BME280;68550;-26.480;29.234;2023-06-10T08:07:58;84740.03;;;22.03;23.46
79142;BME280;68550;-26.480;29.234;2023-06-10T08:10:23;84736.48;;;21.89;23.42
79142;BME280;68550;-26.480;29.234;2023-06-10T08:12:49;84734.83;;;22.01;23.50
79142;BME280;68550;-26.480;29.234;2023-06-10T08:15:14;84729.01;;;22.06;23.51
79142;BME280;68550;-26.480;29.234;2023-06-10T08:17:40;84731.39;;;21.85;23.48
79142;BME280;68550;-26.480;29.234;2023-06-10T08:20:07;84729.11;;;21.32;24.00
79142;BME280;68550;-26.480;29.234;2023-06-10T08:22:31;84722.64;;;21.00;24.43
79142;BME280;68550;-26.480;29.234;2023-06-10T08:24:57;84727.23;;;21.54;24.20
79142;BME280;68550;-26.480;29.234;2023-06-10T08:27:22;84720.90;;;21.97;23.81
79142;BME280;68550;-26.480;29.234;2023-06-10T08:29:51;84717.59;;;21.81;23.70
79142;BME280;68550;-26.480;29.234;2023-06-10T08:32:13;84718.81;;;21.27;23.89
79142;BME280;68550;-26.480;29.234;2023-06-10T08:34:39;84717.06;;;21.74;24.12
79142;BME280;68550;-26.480;29.234;2023-06-10T08:37:04;84713.68;;;21.47;24.32
79142;BME280;68550;-26.480;29.234;2023-06-10T08:39:29;84713.96;;;21.54;24.49
79142;BME280;68550;-26.480;29.234;2023-06-10T08:42:04;84713.97;;;21.81;24.41
79142;BME280;68550;-26.480;29.234;2023-06-10T08:44:26;84713.76;;;21.91;24.25
79142;BME280;68550;-26.480;29.234;2023-06-10T08:46:47;84717.90;;;21.96;25.12
79142;BME280;68550;-26.480;29.234;2023-06-10T08:49:14;84713.17;;;21.26;25.64
79142;BME280;68550;-26.480;29.234;2023-06-10T08:51:37;84713.12;;;21.33;25.35
79142;BME280;68550;-26.480;29.234;2023-06-10T08:54:11;84709.44;;;21.83;24.27
79142;BME280;68550;-26.480;29.234;2023-06-10T08:56:28;84706.73;;;20.78;26.34
79142;BME280;68550;-26.480;29.234;2023-06-10T08:58:53;84704.72;;;21.85;24.84
79142;BME280;68550;-26.480;29.234;2023-06-10T09:01:19;84698.64;;;20.95;25.75
79142;BME280;68550;-26.480;29.234;2023-06-10T09:03:45;84697.05;;;21.91;23.99
79142;BME280;68550;-26.480;29.234;2023-06-10T09:06:10;84691.72;;;21.88;24.18
79142;BME280;68550;-26.480;29.234;2023-06-10T09:08:35;84688.83;;;21.76;25.00
79142;BME280;68550;-26.480;29.234;2023-06-10T09:11:01;84681.90;;;21.86;24.45
79142;BME280;68550;-26.480;29.234;2023-06-10T09:13:27;84680.37;;;21.79;24.47
79142;BME280;68550;-26.480;29.234;2023-06-10T09:15:54;84676.31;;;22.40;24.22
79142;BME280;68550;-26.480;29.234;2023-06-10T09:18:16;84668.76;;;21.92;24.60
79142;BME280;68550;-26.480;29.234;2023-06-10T09:20:43;84665.91;;;22.05;24.18
79142;BME280;68550;-26.480;29.234;2023-06-10T09:23:07;84660.24;;;22.24;24.29
79142;BME280;68550;-26.480;29.234;2023-06-10T09:25:38;84657.22;;;22.26;24.37
79142;BME280;68550;-26.480;29.234;2023-06-10T09:27:58;84655.51;;;22.14;24.45
79142;BME280;68550;-26.480;29.234;2023-06-10T09:30:28;84651.56;;;22.46;24.45
79142;BME280;68550;-26.480;29.234;2023-06-10T09:32:50;84649.64;;;22.12;24.38
79142;BME280;68550;-26.480;29.234;2023-06-10T09:35:15;84647.24;;;22.02;24.71
79142;BME280;68550;-26.480;29.234;2023-06-10T09:37:41;84646.80;;;21.96;24.68
79142;BME280;68550;-26.480;29.234;2023-06-10T09:40:08;84641.74;;;22.13;24.46
79142;BME280;68550;-26.480;29.234;2023-06-10T09:42:34;84642.66;;;22.04;24.68
79142;BME280;68550;-26.480;29.234;2023-06-10T09:44:57;84640.15;;;22.08;24.55
79142;BME280;68550;-26.480;29.234;2023-06-10T09:47:23;84638.97;;;22.35;24.53
79142;BME280;68550;-26.480;29.234;2023-06-10T09:49:48;84634.46;;;22.25;24.40
79142;BME280;68550;-26.480;29.234;2023-06-10T09:52:13;84634.00;;;22.34;24.44
79142;BME280;68550;-26.480;29.234;2023-06-10T09:54:40;84629.77;;;22.57;24.45
79142;BME280;68550;-26.480;29.234;2023-06-10T09:57:08;84631.74;;;22.13;24.54
79142;BME280;68550;-26.480;29.234;2023-06-10T09:59:30;84630.42;;;22.40;24.55
79142;BME280;68550;-26.480;29.234;2023-06-10T10:01:56;84626.65;;;22.27;24.69
79142;BME280;68550;-26.480;29.234;2023-06-10T10:04:25;84622.71;;;22.62;24.63
79142;BME280;68550;-26.480;29.234;2023-06-10T10:06:46;84618.99;;;22.56;24.72
79142;BME280;68550;-26.480;29.234;2023-06-10T10:09:13;84612.77;;;22.68;24.62
79142;BME280;68550;-26.480;29.234;2023-06-10T10:11:37;84611.95;;;22.42;24.64
79142;BME280;68550;-26.480;29.234;2023-06-10T10:14:04;84606.88;;;22.28;24.59
79142;BME280;68550;-26.480;29.234;2023-06-10T10:16:33;84602.08;;;22.52;24.59
79142;BME280;68550;-26.480;29.234;2023-06-10T10:18:55;84597.91;;;22.25;24.34
79142;BME280;68550;-26.480;29.234;2023-06-10T10:21:23;84589.78;;;22.29;24.33
79142;BME280;68550;-26.480;29.234;2023-06-10T10:23:52;84590.80;;;22.42;24.29
79142;BME280;68550;-26.480;29.234;2023-06-10T10:26:14;84580.48;;;22.69;24.17
79142;BME280;68550;-26.480;29.234;2023-06-10T10:28:44;84580.12;;;22.41;24.22
79142;BME280;68550;-26.480;29.234;2023-06-10T10:31:08;84578.14;;;22.66;24.29
79142;BME280;68550;-26.480;29.234;2023-06-10T10:33:36;84573.86;;;22.63;24.44
79142;BME280;68550;-26.480;29.234;2023-06-10T10:35:54;84568.04;;;22.44;24.39
79142;BME280;68550;-26.480;29.234;2023-06-10T10:38:20;84562.02;;;22.40;24.36
79142;BME280;68550;-26.480;29.234;2023-06-10T10:40:45;84560.73;;;22.39;24.41
79142;BME280;68550;-26.480;29.234;2023-06-10T10:43:11;84554.45;;;22.46;24.35
79142;BME280;68550;-26.480;29.234;2023-06-10T10:45:37;84552.98;;;22.38;24.52
79142;BME280;68550;-26.480;29.234;2023-06-10T10:48:07;84550.71;;;22.41;24.51
79142;BME280;68550;-26.480;29.234;2023-06-10T10:50:29;84546.63;;;22.52;24.27
79142;BME280;68550;-26.480;29.234;2023-06-10T10:52:55;84550.62;;;22.38;24.42
79142;BME280;68550;-26.480;29.234;2023-06-10T10:55:17;84547.56;;;22.40;24.33
79142;BME280;68550;-26.480;29.234;2023-06-10T10:57:44;84543.90;;;22.52;24.46
79142;BME280;68550;-26.480;29.234;2023-06-10T11:00:11;84544.18;;;22.37;24.51
79142;BME280;68550;-26.480;29.234;2023-06-10T11:02:37;84541.83;;;22.15;24.28
79142;BME280;68550;-26.480;29.234;2023-06-10T11:05:01;84542.27;;;22.35;23.83
79142;BME280;68550;-26.480;29.234;2023-06-10T11:07:26;84538.91;;;22.40;24.30
79142;BME280;68550;-26.480;29.234;2023-06-10T11:09:59;84537.68;;;22.44;24.16
79142;BME280;68550;-26.480;29.234;2023-06-10T11:12:23;84533.36;;;22.54;23.90
79142;BME280;68550;-26.480;29.234;2023-06-10T11:14:50;84530.39;;;22.82;24.03
79142;BME280;68550;-26.480;29.234;2023-06-10T11:19:33;84526.92;;;22.39;24.36
79142;BME280;68550;-26.480;29.234;2023-06-10T11:22:00;84526.91;;;22.38;24.22
79142;BME280;68550;-26.480;29.234;2023-06-10T11:24:24;84530.07;;;22.27;24.08
79142;BME280;68550;-26.480;29.234;2023-06-10T11:26:52;84529.21;;;22.63;23.95
79142;BME280;68550;-26.480;29.234;2023-06-10T11:29:17;84529.14;;;22.53;24.01
79142;BME280;68550;-26.480;29.234;2023-06-10T11:31:42;84529.74;;;22.45;24.14
79142;BME280;68550;-26.480;29.234;2023-06-10T11:34:07;84523.26;;;22.54;23.96
79142;BME280;68550;-26.480;29.234;2023-06-10T11:36:32;84525.58;;;22.31;24.08
79142;BME280;68550;-26.480;29.234;2023-06-10T11:38:58;84523.64;;;22.53;24.19
79142;BME280;68550;-26.480;29.234;2023-06-10T11:41:23;84521.67;;;22.52;24.17
79142;BME280;68550;-26.480;29.234;2023-06-10T11:43:47;84521.19;;;22.51;23.98
79142;BME280;68550;-26.480;29.234;2023-06-10T11:46:16;84520.93;;;22.57;24.03
79142;BME280;68550;-26.480;29.234;2023-06-10T11:48:38;84515.65;;;22.54;24.03
79142;BME280;68550;-26.480;29.234;2023-06-10T11:51:06;84513.64;;;22.78;24.14
79142;BME280;68550;-26.480;29.234;2023-06-10T11:53:28;84506.55;;;22.48;24.04
79142;BME280;68550;-26.480;29.234;2023-06-10T11:55:54;84508.62;;;22.52;24.09
79142;BME280;68550;-26.480;29.234;2023-06-10T11:58:24;84508.01;;;22.49;24.02
79142;BME280;68550;-26.480;29.234;2023-06-10T12:00:46;84508.46;;;22.54;24.15
79142;BME280;68550;-26.480;29.234;2023-06-10T12:03:10;84506.07;;;22.26;24.19
79142;BME280;68550;-26.480;29.234;2023-06-10T12:05:37;84505.44;;;22.58;24.09
79142;BME280;68550;-26.480;29.234;2023-06-10T12:08:08;84504.71;;;22.59;24.13
79142;BME280;68550;-26.480;29.234;2023-06-10T12:10:27;84502.39;;;22.64;24.07
79142;BME280;68550;-26.480;29.234;2023-06-10T12:12:53;84502.20;;;22.90;24.14
79142;BME280;68550;-26.480;29.234;2023-06-10T12:15:24;84503.33;;;22.59;24.10
79142;BME280;68550;-26.480;29.234;2023-06-10T12:17:43;84497.88;;;22.54;24.08
79142;BME280;68550;-26.480;29.234;2023-06-10T12:22:40;84493.26;;;22.68;24.04
79142;BME280;68550;-26.480;29.234;2023-06-10T12:25:05;84494.13;;;22.61;23.98
79142;BME280;68550;-26.480;29.234;2023-06-10T12:27:25;84491.13;;;22.61;23.92
79142;BME280;68550;-26.480;29.234;2023-06-10T12:29:52;84491.48;;;22.56;23.82
79142;BME280;68550;-26.480;29.234;2023-06-10T12:32:16;84491.46;;;22.53;23.76
79142;BME280;68550;-26.480;29.234;2023-06-10T12:34:41;84493.12;;;22.60;23.81
79142;BME280;68550;-26.480;29.234;2023-06-10T12:37:13;84494.72;;;22.56;23.88
79142;BME280;68550;-26.480;29.234;2023-06-10T12:39:34;84495.51;;;22.52;23.86
79142;BME280;68550;-26.480;29.234;2023-06-10T12:41:59;84491.25;;;22.52;23.93
79142;BME280;68550;-26.480;29.234;2023-06-10T12:44:31;84492.69;;;22.47;23.74
79142;BME280;68550;-26.480;29.234;2023-06-10T12:46:55;84490.14;;;22.69;23.83
79142;BME280;68550;-26.480;29.234;2023-06-10T12:49:21;84489.06;;;22.51;23.74
79142;BME280;68550;-26.480;29.234;2023-06-10T12:51:42;84496.26;;;21.52;24.33
79142;BME280;68550;-26.480;29.234;2023-06-10T12:54:07;84492.08;;;22.29;23.96
79142;BME280;68550;-26.480;29.234;2023-06-10T12:56:33;84491.77;;;22.71;23.82
79142;BME280;68550;-26.480;29.234;2023-06-10T12:58:59;84490.40;;;22.49;23.77
79142;BME280;68550;-26.480;29.234;2023-06-10T13:01:26;84488.06;;;22.53;23.94
79142;BME280;68550;-26.480;29.234;2023-06-10T13:03:50;84485.22;;;22.70;23.73
79142;BME280;68550;-26.480;29.234;2023-06-10T13:06:15;84487.58;;;22.54;23.55
79142;BME280;68550;-26.480;29.234;2023-06-10T13:08:41;84486.44;;;22.65;23.50
79142;BME280;68550;-26.480;29.234;2023-06-10T13:11:07;84486.49;;;22.36;23.81
79142;BME280;68550;-26.480;29.234;2023-06-10T13:13:34;84485.04;;;22.38;23.82
79142;BME280;68550;-26.480;29.234;2023-06-10T13:15:58;84486.10;;;22.66;23.88
79142;BME280;68550;-26.480;29.234;2023-06-10T13:18:23;84483.57;;;22.63;23.97
79142;BME280;68550;-26.480;29.234;2023-06-10T13:20:49;84482.72;;;22.61;23.94
79142;BME280;68550;-26.480;29.234;2023-06-10T13:23:15;84480.71;;;22.69;24.06
79142;BME280;68550;-26.480;29.234;2023-06-10T13:25:40;84485.79;;;22.59;24.11
79142;BME280;68550;-26.480;29.234;2023-06-10T13:28:05;84485.39;;;22.48;24.02
79142;BME280;68550;-26.480;29.234;2023-06-10T13:30:31;84487.16;;;22.77;23.96
79142;BME280;68550;-26.480;29.234;2023-06-10T13:32:57;84486.68;;;22.61;23.86
79142;BME280;68550;-26.480;29.234;2023-06-10T13:35:22;84484.11;;;22.81;23.96
79142;BME280;68550;-26.480;29.234;2023-06-10T13:37:50;84485.14;;;22.81;24.07